Time;durP1;ratioP1;P1;durP2;ratioP2;P2;SDS_P1;SDS_P2;PMS_P1;PMS_P2;Temp;Humidity;BMP_temperature;BMP_pressure;BME280_temperature;BME280_humidity;BME280_pressure;Samples;Min_cycle;Max_cycle;Signal;HPM_P1;HPM_P2
2023/09/28 00:00:35;;;;;;;4.82;2.70;;;;;;;;;;5071557;28;20032;-65
2023/09/28 00:03:01;;;;;;;4.93;2.90;;;;;;;;;;5073513;28;20108;-65
2023/09/28 00:05:27;;;;;;;4.90;2.80;;;;;;;;;;5064684;28;20119;-65
2023/09/28 00:07:53;;;;;;;5.63;2.58;;;;;;;;;;5065175;28;20413;-65
2023/09/28 00:10:18;;;;;;;4.57;2.58;;;;;;;;;;5056034;28;20081;-65
2023/09/28 00:12:47;;;;;;;4.75;2.42;;;;;;;;;;5072328;28;20599;-65
2023/09/28 00:15:13;;;;;;;4.97;2.30;;;;;;;;;;5063356;28;20036;-64
2023/09/28 00:17:38;;;;;;;3.17;2.03;;;;;;;;;;5049023;28;20032;-65
2023/09/28 00:20:17;;;;;;;4.43;2.20;;;;;;;;;;5065503;28;20549;-66
2023/09/28 00:22:46;;;;;;;3.50;2.28;;;;;;;;;;5068647;28;20020;-65
2023/09/28 00:25:12;;;;;;;4.05;2.30;;;;;;;;;;5072681;28;20035;-65
2023/09/28 00:27:43;;;;;;;4.80;2.70;;;;;;;;;;5071476;28;20016;-65
2023/09/28 00:30:12;;;;;;;4.55;2.20;;;;;;;;;;5069960;28;20046;-65
2023/09/28 00:32:37;;;;;;;4.60;2.60;;;;;;;;;;5060770;28;20039;-65
2023/09/28 00:35:04;;;;;;;8.80;2.88;;;;;;;;;;5064737;28;20028;-65
2023/09/28 00:37:29;;;;;;;5.22;2.80;;;;;;;;;;5061292;28;20024;-65
2023/09/28 00:39:55;;;;;;;4.47;2.47;;;;;;;;;;5063807;28;20090;-65
2023/09/28 00:42:20;;;;;;;4.30;2.72;;;;;;;;;;5070246;28;20107;-65
2023/09/28 00:44:46;;;;;;;7.05;2.67;;;;;;;;;;5078771;28;20043;-64
2023/09/28 00:47:11;;;;;;;3.92;2.45;;;;;;;;;;5079146;28;20032;-65
2023/09/28 00:49:36;;;;;;;3.70;2.17;;;;;;;;;;5079197;28;20109;-64
2023/09/28 00:52:02;;;;;;;3.90;2.28;;;;;;;;;;5075105;28;20100;-64
2023/09/28 00:54:27;;;;;;;5.97;2.42;;;;;;;;;;5082233;28;20024;-64
2023/09/28 00:56:53;;;;;;;8.55;2.92;;;;;;;;;;5081630;28;20065;-64
2023/09/28 00:59:18;;;;;;;4.72;2.88;;;;;;;;;;5078474;28;20111;-64
2023/09/28 01:01:44;;;;;;;4.10;2.42;;;;;;;;;;5080665;28;20043;-64
2023/09/28 01:04:10;;;;;;;3.47;2.20;;;;;;;;;;5081815;28;20410;-64
2023/09/28 01:06:35;;;;;;;5.75;2.13;;;;;;;;;;5085801;28;20356;-64
2023/09/28 01:09:01;;;;;;;4.40;2.78;;;;;;;;;;5079023;28;20175;-65
2023/09/28 01:11:28;;;;;;;4.32;2.50;;;;;;;;;;5066217;28;20463;-65
2023/09/28 01:13:53;;;;;;;4.57;2.55;;;;;;;;;;5062345;28;20028;-65
2023/09/28 01:16:19;;;;;;;6.60;2.25;;;;;;;;;;5059536;28;20059;-65
2023/09/28 01:18:44;;;;;;;4.22;2.60;;;;;;;;;;5059007;28;20090;-65
2023/09/28 01:21:10;;;;;;;4.25;2.50;;;;;;;;;;5056821;28;20025;-65
2023/09/28 01:23:35;;;;;;;5.25;2.63;;;;;;;;;;5066537;28;20035;-65
2023/09/28 01:26:01;;;;;;;5.88;3.17;;;;;;;;;;5071960;28;20462;-64
2023/09/28 01:28:27;;;;;;;3.95;2.55;;;;;;;;;;5084159;28;20039;-65
2023/09/28 01:30:52;;;;;;;4.28;2.90;;;;;;;;;;5080495;28;20213;-65
2023/09/28 01:33:17;;;;;;;5.07;2.72;;;;;;;;;;5074196;28;20245;-65
2023/09/28 01:35:43;;;;;;;5.05;2.92;;;;;;;;;;5073407;28;20032;-64
2023/09/28 01:38:12;;;;;;;6.05;2.67;;;;;;;;;;5064440;28;20839;-65
2023/09/28 01:40:38;;;;;;;3.53;2.50;;;;;;;;;;5072020;28;20031;-65
2023/09/28 01:43:03;;;;;;;4.35;2.60;;;;;;;;;;5061707;28;20020;-65
2023/09/28 01:45:29;;;;;;;7.22;2.92;;;;;;;;;;5063005;28;20423;-65
2023/09/28 01:47:54;;;;;;;4.78;3.10;;;;;;;;;;5079698;28;21079;-65
2023/09/28 01:50:19;;;;;;;4.15;2.63;;;;;;;;;;5066890;28;20531;-65
2023/09/28 01:52:45;;;;;;;5.57;2.60;;;;;;;;;;5063765;28;20032;-65
2023/09/28 01:55:10;;;;;;;4.47;2.72;;;;;;;;;;5072328;28;20039;-66
2023/09/28 01:57:35;;;;;;;4.47;2.83;;;;;;;;;;5064564;28;20020;-66
2023/09/28 02:00:01;;;;;;;4.60;2.78;;;;;;;;;;5070511;28;20447;-66
2023/09/28 02:02:26;;;;;;;4.72;2.53;;;;;;;;;;5074714;28;20032;-66
2023/09/28 02:04:51;;;;;;;4.57;2.60;;;;;;;;;;5059704;28;20036;-66
2023/09/28 02:07:17;;;;;;;4.78;2.65;;;;;;;;;;5058373;28;20836;-66
2023/09/28 02:09:43;;;;;;;4.95;2.92;;;;;;;;;;5064417;28;20013;-66
2023/09/28 02:12:08;;;;;;;6.77;3.37;;;;;;;;;;5062897;28;20094;-66
2023/09/28 02:14:33;;;;;;;6.00;3.30;;;;;;;;;;5075827;28;20290;-66
2023/09/28 02:16:58;;;;;;;4.33;2.73;;;;;;;;;;5070175;28;20270;-66
2023/09/28 02:19:23;;;;;;;5.50;2.90;;;;;;;;;;5075634;28;20338;-65
2023/09/28 02:21:51;;;;;;;4.93;2.77;;;;;;;;;;5080624;28;20020;-64
2023/09/28 02:24:16;;;;;;;8.82;3.00;;;;;;;;;;5079648;28;20716;-64
2023/09/28 02:26:41;;;;;;;4.00;2.60;;;;;;;;;;5064849;28;20028;-64
2023/09/28 02:29:07;;;;;;;9.17;3.40;;;;;;;;;;5065729;28;20032;-65
2023/09/28 02:31:32;;;;;;;5.20;3.00;;;;;;;;;;5074176;28;20273;-65
2023/09/28 02:33:58;;;;;;;5.97;2.78;;;;;;;;;;5070076;28;20819;-65
2023/09/28 02:36:23;;;;;;;4.80;2.95;;;;;;;;;;5077644;28;20032;-65
2023/09/28 02:38:48;;;;;;;5.03;2.67;;;;;;;;;;5076204;28;20067;-65
2023/09/28 02:41:17;;;;;;;5.28;3.13;;;;;;;;;;5075876;28;20768;-65
2023/09/28 02:43:42;;;;;;;4.30;2.67;;;;;;;;;;5072291;28;20030;-64
2023/09/28 02:46:07;;;;;;;4.80;3.13;;;;;;;;;;5079675;28;20028;-64
2023/09/28 02:48:33;;;;;;;4.35;3.00;;;;;;;;;;5079830;28;20042;-64
2023/09/28 02:50:58;;;;;;;5.60;3.20;;;;;;;;;;5080676;28;20036;-64
2023/09/28 02:53:24;;;;;;;4.03;2.83;;;;;;;;;;5056894;28;20364;-65
2023/09/28 02:55:49;;;;;;;5.83;3.13;;;;;;;;;;5075784;28;20119;-64
2023/09/28 02:58:14;;;;;;;5.60;3.20;;;;;;;;;;5063449;28;20398;-64
2023/09/28 03:00:40;;;;;;;4.55;3.00;;;;;;;;;;5079198;28;20378;-66
2023/09/28 03:03:07;;;;;;;4.85;3.42;;;;;;;;;;5045994;28;20118;-66
2023/09/28 03:05:37;;;;;;;5.28;3.05;;;;;;;;;;5074506;28;20092;-66
2023/09/28 03:08:04;;;;;;;7.38;3.67;;;;;;;;;;5076959;28;20043;-66
2023/09/28 03:10:30;;;;;;;5.53;3.15;;;;;;;;;;5077497;28;20031;-66
2023/09/28 03:12:56;;;;;;;5.15;3.20;;;;;;;;;;5073612;28;20462;-66
2023/09/28 03:15:21;;;;;;;8.65;3.70;;;;;;;;;;5073177;28;20056;-66
2023/09/28 03:17:46;;;;;;;4.63;3.15;;;;;;;;;;5078836;28;20028;-66
2023/09/28 03:20:17;;;;;;;6.03;3.53;;;;;;;;;;5076891;28;20028;-66
2023/09/28 03:22:46;;;;;;;5.53;3.63;;;;;;;;;;5080770;28;20301;-66
2023/09/28 03:25:18;;;;;;;4.88;3.70;;;;;;;;;;5085269;28;20154;-67
2023/09/28 03:27:47;;;;;;;5.28;2.95;;;;;;;;;;5076577;28;20040;-67
2023/09/28 03:30:17;;;;;;;6.03;3.28;;;;;;;;;;5074281;28;20039;-66
2023/09/28 03:32:42;;;;;;;5.15;3.10;;;;;;;;;;5075341;28;20032;-64
2023/09/28 03:35:09;;;;;;;5.35;3.55;;;;;;;;;;5077772;28;20035;-64
2023/09/28 03:37:34;;;;;;;7.13;3.92;;;;;;;;;;5075899;28;20035;-64
2023/09/28 03:40:00;;;;;;;5.28;3.80;;;;;;;;;;5071880;28;20027;-64
2023/09/28 03:42:26;;;;;;;6.03;3.88;;;;;;;;;;5074283;28;20028;-64
2023/09/28 03:44:52;;;;;;;6.35;4.18;;;;;;;;;;5076966;28;20785;-64
2023/09/28 03:47:17;;;;;;;6.32;3.72;;;;;;;;;;5071030;28;20020;-64
2023/09/28 03:49:42;;;;;;;5.60;3.80;;;;;;;;;;5078639;28;20031;-64
2023/09/28 03:52:08;;;;;;;6.50;4.22;;;;;;;;;;5077826;28;20032;-64
2023/09/28 03:54:34;;;;;;;8.18;4.30;;;;;;;;;;5067988;28;20824;-64
2023/09/28 03:56:59;;;;;;;6.55;3.60;;;;;;;;;;5076275;28;20104;-64
2023/09/28 03:59:25;;;;;;;6.20;4.20;;;;;;;;;;5073138;28;20032;-64
2023/09/28 04:01:50;;;;;;;6.82;4.05;;;;;;;;;;5080606;28;20289;-65
2023/09/28 04:04:16;;;;;;;7.03;4.40;;;;;;;;;;5077115;28;20113;-65
2023/09/28 04:06:41;;;;;;;5.53;3.88;;;;;;;;;;5068662;28;20534;-65
2023/09/28 04:09:07;;;;;;;5.80;4.10;;;;;;;;;;5079622;28;20100;-66
2023/09/28 04:11:34;;;;;;;6.53;4.22;;;;;;;;;;5080809;28;20630;-65
2023/09/28 04:14:01;;;;;;;5.88;4.00;;;;;;;;;;5073431;28;20020;-65
2023/09/28 04:16:26;;;;;;;6.53;4.13;;;;;;;;;;5067772;28;20016;-65
2023/09/28 04:18:51;;;;;;;6.60;4.63;;;;;;;;;;5071708;28;20036;-64
2023/09/28 04:21:16;;;;;;;5.53;4.07;;;;;;;;;;5078130;28;20475;-64
2023/09/28 04:23:42;;;;;;;5.82;4.50;;;;;;;;;;5078708;28;20684;-64
2023/09/28 04:26:07;;;;;;;7.53;4.90;;;;;;;;;;5081282;28;20036;-64
2023/09/28 04:28:33;;;;;;;6.22;3.80;;;;;;;;;;5069741;28;20081;-65
2023/09/28 04:30:59;;;;;;;7.03;4.07;;;;;;;;;;5078705;28;20027;-65
2023/09/28 04:33:24;;;;;;;5.32;4.05;;;;;;;;;;5073322;28;20048;-64
2023/09/28 04:35:49;;;;;;;6.82;4.57;;;;;;;;;;5076681;28;20080;-65
2023/09/28 04:38:15;;;;;;;9.82;5.03;;;;;;;;;;5072434;28;20115;-65
2023/09/28 04:40:40;;;;;;;8.38;4.95;;;;;;;;;;5068383;28;20028;-65
2023/09/28 04:43:05;;;;;;;9.35;4.28;;;;;;;;;;5075045;28;20039;-65
2023/09/28 04:45:31;;;;;;;6.93;4.57;;;;;;;;;;5073098;28;20024;-65
2023/09/28 04:47:56;;;;;;;5.80;4.47;;;;;;;;;;5079077;28;20688;-65
2023/09/28 04:50:21;;;;;;;5.13;4.10;;;;;;;;;;5071243;28;20034;-65
2023/09/28 04:52:46;;;;;;;7.32;4.45;;;;;;;;;;5065963;28;20312;-66
2023/09/28 04:55:11;;;;;;;7.10;4.57;;;;;;;;;;5071803;28;20027;-65
2023/09/28 04:57:38;;;;;;;7.07;4.72;;;;;;;;;;5070753;28;20267;-65
2023/09/28 05:00:06;;;;;;;8.02;4.80;;;;;;;;;;5076849;28;20579;-66
2023/09/28 05:02:32;;;;;;;7.72;4.88;;;;;;;;;;5056535;28;20035;-65
2023/09/28 05:04:57;;;;;;;8.50;4.65;;;;;;;;;;5051205;28;20036;-65
2023/09/28 05:07:22;;;;;;;7.00;4.78;;;;;;;;;;5051708;28;20020;-66
2023/09/28 05:09:47;;;;;;;7.67;5.03;;;;;;;;;;5047855;28;20024;-66
2023/09/28 05:12:13;;;;;;;7.75;5.38;;;;;;;;;;5049784;28;20273;-65
2023/09/28 05:14:38;;;;;;;7.10;4.93;;;;;;;;;;5048317;28;21385;-66
2023/09/28 05:17:03;;;;;;;9.18;4.70;;;;;;;;;;5040312;28;20024;-65
2023/09/28 05:19:30;;;;;;;6.63;4.57;;;;;;;;;;5048991;28;20085;-65
2023/09/28 05:21:55;;;;;;;8.30;4.80;;;;;;;;;;5070155;28;20360;-65
2023/09/28 05:24:20;;;;;;;7.70;5.43;;;;;;;;;;5088515;28;20569;-65
2023/09/28 05:26:46;;;;;;;8.68;5.65;;;;;;;;;;5090082;28;20020;-65
2023/09/28 05:29:11;;;;;;;6.47;5.23;;;;;;;;;;5085337;28;20035;-65
2023/09/28 05:31:36;;;;;;;8.90;5.30;;;;;;;;;;5085619;28;20275;-64
2023/09/28 05:34:01;;;;;;;9.55;6.68;;;;;;;;;;5071824;28;20310;-65
2023/09/28 05:36:27;;;;;;;6.63;5.28;;;;;;;;;;5067365;28;20046;-65
2023/09/28 05:38:52;;;;;;;8.38;5.20;;;;;;;;;;5071672;28;20392;-65
2023/09/28 05:41:17;;;;;;;10.40;5.83;;;;;;;;;;5087661;28;20049;-65
2023/09/28 05:43:43;;;;;;;8.27;5.40;;;;;;;;;;5091003;28;20289;-65
2023/09/28 05:46:09;;;;;;;7.18;5.47;;;;;;;;;;5090033;28;20270;-65
2023/09/28 05:48:34;;;;;;;11.45;6.03;;;;;;;;;;5090854;28;20081;-65
2023/09/28 05:50:59;;;;;;;12.40;6.53;;;;;;;;;;5090464;28;20028;-65
2023/09/28 05:53:25;;;;;;;10.93;7.00;;;;;;;;;;5090279;28;20048;-65
2023/09/28 05:55:51;;;;;;;7.37;5.47;;;;;;;;;;5088723;28;20050;-65
2023/09/28 05:58:16;;;;;;;7.35;6.32;;;;;;;;;;5089029;28;20298;-65
2023/09/28 06:00:41;;;;;;;9.03;6.00;;;;;;;;;;5085716;28;20047;-65
2023/09/28 06:03:07;;;;;;;8.52;6.38;;;;;;;;;;5088933;28;20262;-65
2023/09/28 06:05:32;;;;;;;7.13;5.95;;;;;;;;;;5087416;28;20020;-65
2023/09/28 06:07:58;;;;;;;9.27;5.53;;;;;;;;;;5088439;28;20020;-65
2023/09/28 06:10:23;;;;;;;10.70;5.70;;;;;;;;;;5086189;28;20621;-65
2023/09/28 06:12:48;;;;;;;9.88;6.45;;;;;;;;;;5087576;28;20020;-65
2023/09/28 06:15:14;;;;;;;7.63;6.10;;;;;;;;;;5086262;28;20509;-65
2023/09/28 06:17:39;;;;;;;7.68;6.05;;;;;;;;;;5087807;28;20670;-65
2023/09/28 06:20:05;;;;;;;8.65;6.07;;;;;;;;;;5087235;28;20059;-65
2023/09/28 06:22:30;;;;;;;11.30;6.68;;;;;;;;;;5086990;28;20039;-65
2023/09/28 06:24:55;;;;;;;9.73;6.82;;;;;;;;;;5088380;28;20077;-65
2023/09/28 06:27:21;;;;;;;10.25;6.78;;;;;;;;;;5087980;28;20505;-65
2023/09/28 06:29:52;;;;;;;11.40;8.57;;;;;;;;;;5056136;28;20479;-65
2023/09/28 06:32:18;;;;;;;11.05;8.20;;;;;;;;;;5091113;28;20028;-65
2023/09/28 06:34:44;;;;;;;11.32;8.82;;;;;;;;;;5086468;28;20097;-65
2023/09/28 06:37:09;;;;;;;11.95;8.93;;;;;;;;;;5090523;28;20458;-65
2023/09/28 06:39:35;;;;;;;10.88;8.60;;;;;;;;;;5083849;28;20032;-65
2023/09/28 06:42:00;;;;;;;10.45;8.38;;;;;;;;;;5080967;28;20027;-66
2023/09/28 06:44:26;;;;;;;10.07;7.95;;;;;;;;;;5071192;28;20028;-66
2023/09/28 06:46:52;;;;;;;11.65;7.50;;;;;;;;;;5080629;28;20098;-66
2023/09/28 06:49:17;;;;;;;12.02;6.82;;;;;;;;;;5089558;28;20455;-66
2023/09/28 06:51:42;;;;;;;9.87;7.10;;;;;;;;;;5058098;28;20119;-67
2023/09/28 06:54:08;;;;;;;15.65;6.80;;;;;;;;;;5040654;28;20275;-67
2023/09/28 06:56:35;;;;;;;10.80;6.82;;;;;;;;;;5051307;28;20036;-66
2023/09/28 06:59:01;;;;;;;7.93;5.75;;;;;;;;;;5054680;28;20032;-66
2023/09/28 07:01:26;;;;;;;9.23;6.05;;;;;;;;;;5084876;28;20481;-66
2023/09/28 07:03:52;;;;;;;9.97;5.67;;;;;;;;;;5076876;28;20480;-66
2023/09/28 07:06:21;;;;;;;7.55;5.43;;;;;;;;;;5083884;28;20341;-66
2023/09/28 07:08:46;;;;;;;9.13;5.70;;;;;;;;;;5085220;28;20070;-66
2023/09/28 07:11:11;;;;;;;7.78;4.80;;;;;;;;;;5087129;28;20386;-66
2023/09/28 07:13:37;;;;;;;8.57;4.90;;;;;;;;;;5085500;28;20025;-66
2023/09/28 07:16:02;;;;;;;12.48;4.90;;;;;;;;;;5085597;28;20024;-66
2023/09/28 07:18:28;;;;;;;9.85;4.80;;;;;;;;;;5084721;28;20537;-66
2023/09/28 07:20:53;;;;;;;10.57;4.30;;;;;;;;;;5083616;28;20038;-67
2023/09/28 07:23:18;;;;;;;7.18;3.80;;;;;;;;;;5076282;28;20070;-67
2023/09/28 07:25:44;;;;;;;10.97;3.70;;;;;;;;;;5081093;28;20035;-66
2023/09/28 07:28:11;;;;;;;8.25;3.95;;;;;;;;;;5088327;28;20263;-66
2023/09/28 07:30:36;;;;;;;7.38;4.03;;;;;;;;;;5092573;28;20026;-66
2023/09/28 07:33:01;;;;;;;8.30;4.07;;;;;;;;;;5089929;28;20032;-66
2023/09/28 07:35:27;;;;;;;8.63;4.00;;;;;;;;;;5088476;28;20033;-66
2023/09/28 07:37:52;;;;;;;8.43;3.67;;;;;;;;;;5087446;28;20047;-66
2023/09/28 07:40:22;;;;;;;8.93;4.07;;;;;;;;;;5089292;28;20035;-66
2023/09/28 07:42:47;;;;;;;9.10;4.00;;;;;;;;;;5088996;28;20073;-66
2023/09/28 07:45:13;;;;;;;7.07;3.20;;;;;;;;;;5088974;28;20044;-66
2023/09/28 07:47:39;;;;;;;7.18;3.30;;;;;;;;;;5090418;28;20270;-66
2023/09/28 07:50:05;;;;;;;7.05;3.30;;;;;;;;;;5085052;28;20492;-66
2023/09/28 07:52:30;;;;;;;8.90;3.45;;;;;;;;;;5082722;28;20428;-65
2023/09/28 07:54:56;;;;;;;9.93;3.60;;;;;;;;;;5077435;28;20029;-66
2023/09/28 07:57:22;;;;;;;9.85;3.33;;;;;;;;;;5086670;28;20367;-65
2023/09/28 07:59:47;;;;;;;8.13;2.92;;;;;;;;;;5078083;28;20136;-66
2023/09/28 08:02:12;;;;;;;9.65;2.92;;;;;;;;;;5082077;28;20416;-66
2023/09/28 08:04:38;;;;;;;8.80;3.10;;;;;;;;;;5079537;28;20086;-65
2023/09/28 08:07:04;;;;;;;12.25;3.42;;;;;;;;;;5088778;28;20263;-66
2023/09/28 08:09:30;;;;;;;12.95;2.88;;;;;;;;;;5079681;28;20471;-67
2023/09/28 08:11:55;;;;;;;10.07;3.13;;;;;;;;;;5081995;28;20093;-69
2023/09/28 08:14:21;;;;;;;9.13;2.78;;;;;;;;;;5078127;28;20459;-66
2023/09/28 08:16:47;;;;;;;13.50;3.08;;;;;;;;;;5080008;28;20020;-65
2023/09/28 08:19:12;;;;;;;9.60;2.92;;;;;;;;;;5077812;28;20056;-66
2023/09/28 08:21:38;;;;;;;11.85;2.88;;;;;;;;;;5077087;28;20479;-66
2023/09/28 08:24:08;;;;;;;10.20;2.80;;;;;;;;;;5076111;28;20150;-66
2023/09/28 08:26:34;;;;;;;9.70;2.95;;;;;;;;;;5078108;28;20028;-66
2023/09/28 08:29:00;;;;;;;11.32;2.90;;;;;;;;;;5087291;28;20040;-65
2023/09/28 08:31:25;;;;;;;7.72;2.53;;;;;;;;;;5088096;28;20471;-66
2023/09/28 08:33:52;;;;;;;9.23;2.47;;;;;;;;;;5082432;28;20024;-66
2023/09/28 08:36:17;;;;;;;11.75;3.17;;;;;;;;;;5074671;28;20111;-66
2023/09/28 08:38:43;;;;;;;15.40;3.28;;;;;;;;;;5091741;28;20761;-66
2023/09/28 08:41:09;;;;;;;10.27;2.97;;;;;;;;;;5091091;28;20467;-66
2023/09/28 08:43:39;;;;;;;10.23;2.75;;;;;;;;;;5091832;28;20486;-66
2023/09/28 08:46:05;;;;;;;10.18;2.92;;;;;;;;;;5091081;28;20024;-66
2023/09/28 08:48:32;;;;;;;8.13;2.72;;;;;;;;;;5053453;28;20051;-66
2023/09/28 08:51:09;;;;;;;9.07;2.35;;;;;;;;;;5041698;28;20976;-65
2023/09/28 08:53:36;;;;;;;13.05;2.65;;;;;;;;;;5047489;28;20016;-64
2023/09/28 08:56:03;;;;;;;10.38;2.92;;;;;;;;;;5068012;28;20068;-64
2023/09/28 08:58:28;;;;;;;9.00;3.00;;;;;;;;;;5084266;28;20083;-64
2023/09/28 09:00:54;;;;;;;9.00;2.88;;;;;;;;;;5071509;28;20115;-65
2023/09/28 09:03:21;;;;;;;8.68;2.72;;;;;;;;;;5049276;28;20419;-65
2023/09/28 09:05:46;;;;;;;13.38;3.35;;;;;;;;;;5049525;28;20028;-66
2023/09/28 09:08:14;;;;;;;9.82;3.65;;;;;;;;;;5048618;28;20873;-65
2023/09/28 09:10:40;;;;;;;7.65;2.63;;;;;;;;;;5048171;28;20031;-65
2023/09/28 09:13:07;;;;;;;12.88;2.83;;;;;;;;;;5044452;28;20035;-65
2023/09/28 09:15:36;;;;;;;11.95;3.00;;;;;;;;;;5042707;28;20821;-65
2023/09/28 09:18:01;;;;;;;9.13;2.97;;;;;;;;;;5045654;28;20198;-65
2023/09/28 09:20:28;;;;;;;16.52;2.92;;;;;;;;;;5046549;28;20894;-65
2023/09/28 09:22:53;;;;;;;12.75;2.75;;;;;;;;;;5046527;28;20020;-64
2023/09/28 09:25:18;;;;;;;11.93;2.78;;;;;;;;;;5040392;28;20032;-66
2023/09/28 09:27:44;;;;;;;11.27;2.67;;;;;;;;;;5043016;28;20841;-65
2023/09/28 09:30:10;;;;;;;9.77;3.25;;;;;;;;;;5047463;28;20785;-65
2023/09/28 09:32:37;;;;;;;11.25;2.30;;;;;;;;;;5047874;28;20074;-65
2023/09/28 09:35:04;;;;;;;9.32;2.58;;;;;;;;;;5047024;28;20955;-66
2023/09/28 09:37:29;;;;;;;12.25;2.80;;;;;;;;;;5046862;28;20020;-66
2023/09/28 09:40:08;;;;;;;8.30;2.50;;;;;;;;;;5050758;28;20129;-67
2023/09/28 09:42:36;;;;;;;8.65;2.65;;;;;;;;;;5087164;28;20024;-67
2023/09/28 09:45:04;;;;;;;9.23;2.55;;;;;;;;;;5090295;28;20485;-66
2023/09/28 09:47:29;;;;;;;8.20;2.88;;;;;;;;;;5082053;28;20020;-66
2023/09/28 09:49:55;;;;;;;11.00;3.15;;;;;;;;;;5079462;28;20057;-66
2023/09/28 09:52:21;;;;;;;11.20;2.97;;;;;;;;;;5086280;28;20127;-67
2023/09/28 09:54:47;;;;;;;8.65;2.83;;;;;;;;;;5078724;28;20108;-66
2023/09/28 09:57:14;;;;;;;7.43;2.50;;;;;;;;;;5086573;28;20023;-67
2023/09/28 09:59:43;;;;;;;14.30;3.00;;;;;;;;;;5079615;28;20047;-67
2023/09/28 10:02:12;;;;;;;9.75;3.20;;;;;;;;;;5075987;28;20876;-67
2023/09/28 10:04:37;;;;;;;10.90;3.00;;;;;;;;;;5047609;28;20024;-67
2023/09/28 10:07:03;;;;;;;8.10;2.87;;;;;;;;;;5046168;28;20135;-67
2023/09/28 10:09:29;;;;;;;7.90;2.35;;;;;;;;;;5046773;28;20428;-66
2023/09/28 10:11:54;;;;;;;11.60;2.75;;;;;;;;;;5048393;28;20027;-67
2023/09/28 10:14:21;;;;;;;11.70;2.60;;;;;;;;;;5045765;28;20937;-66
2023/09/28 10:16:51;;;;;;;10.65;2.55;;;;;;;;;;5044592;28;20024;-67
2023/09/28 10:19:19;;;;;;;11.70;2.88;;;;;;;;;;5083761;28;20535;-66
2023/09/28 10:21:44;;;;;;;8.15;2.15;;;;;;;;;;5079574;28;20479;-66
2023/09/28 10:24:14;;;;;;;10.40;3.22;;;;;;;;;;5082427;28;20063;-66
2023/09/28 10:26:57;;;;;;;9.13;2.58;;;;;;;;;;5079750;28;20490;-66
2023/09/28 10:29:29;;;;;;;7.88;2.75;;;;;;;;;;5082424;28;20056;-66
2023/09/28 10:31:54;;;;;;;9.73;2.55;;;;;;;;;;5094678;28;20057;-66
2023/09/28 10:34:20;;;;;;;9.77;2.60;;;;;;;;;;5093148;28;20111;-66
2023/09/28 10:37:05;;;;;;;8.77;2.63;;;;;;;;;;5086018;28;20095;-66
2023/09/28 10:39:31;;;;;;;12.20;3.05;;;;;;;;;;5088557;28;20028;-66
2023/09/28 10:42:03;;;;;;;7.95;3.08;;;;;;;;;;5092930;28;20031;-66
2023/09/28 10:44:30;;;;;;;10.68;2.70;;;;;;;;;;5092281;28;20052;-67
2023/09/28 10:46:56;;;;;;;8.15;2.40;;;;;;;;;;5092252;28;20035;-66
2023/09/28 10:49:22;;;;;;;5.97;2.23;;;;;;;;;;5050808;28;20028;-67
2023/09/28 10:51:48;;;;;;;7.00;2.42;;;;;;;;;;5048697;28;20444;-67
2023/09/28 10:54:14;;;;;;;9.20;2.92;;;;;;;;;;5043632;28;20920;-66
2023/09/28 10:56:39;;;;;;;9.15;2.40;;;;;;;;;;5045180;28;20051;-66
2023/09/28 10:59:10;;;;;;;11.50;3.03;;;;;;;;;;5041325;28;20035;-66
2023/09/28 11:01:39;;;;;;;6.78;2.40;;;;;;;;;;5043745;28;20051;-67
2023/09/28 11:04:04;;;;;;;9.23;2.78;;;;;;;;;;5060876;28;20032;-67
2023/09/28 11:06:30;;;;;;;7.70;2.20;;;;;;;;;;5088386;28;20077;-67
2023/09/28 11:08:57;;;;;;;12.32;3.17;;;;;;;;;;5088449;28;20765;-66
2023/09/28 11:11:22;;;;;;;7.53;2.78;;;;;;;;;;5089158;28;20616;-66
2023/09/28 11:13:48;;;;;;;13.25;3.22;;;;;;;;;;5090059;28;20099;-66
2023/09/28 11:16:16;;;;;;;12.13;3.28;;;;;;;;;;5086543;28;20020;-66
2023/09/28 11:18:41;;;;;;;9.18;2.78;;;;;;;;;;5082847;28;20025;-67
2023/09/28 11:21:07;;;;;;;8.57;2.75;;;;;;;;;;5083492;28;20417;-66
2023/09/28 11:23:32;;;;;;;8.88;3.15;;;;;;;;;;5090987;28;20356;-67
2023/09/28 11:25:58;;;;;;;9.10;2.73;;;;;;;;;;5089371;28;20016;-67
2023/09/28 11:28:23;;;;;;;9.75;2.08;;;;;;;;;;5090140;28;20786;-66
2023/09/28 11:31:04;;;;;;;10.50;2.58;;;;;;;;;;5091846;28;20024;-66
2023/09/28 11:33:29;;;;;;;9.02;2.60;;;;;;;;;;5073872;28;20024;-66
2023/09/28 11:35:54;;;;;;;7.93;2.23;;;;;;;;;;5074189;28;20130;-66
2023/09/28 11:38:19;;;;;;;7.18;2.55;;;;;;;;;;5079379;28;20428;-66
2023/09/28 11:40:47;;;;;;;12.98;2.72;;;;;;;;;;5080639;28;20025;-67
2023/09/28 11:43:12;;;;;;;7.53;2.92;;;;;;;;;;5077427;28;20028;-66
2023/09/28 11:45:37;;;;;;;9.43;2.87;;;;;;;;;;5079763;28;20070;-67
2023/09/28 11:48:06;;;;;;;7.53;2.30;;;;;;;;;;5078785;28;20365;-66
2023/09/28 11:50:31;;;;;;;6.88;3.00;;;;;;;;;;5093144;28;20024;-66
2023/09/28 11:52:57;;;;;;;7.43;2.50;;;;;;;;;;5092224;28;20110;-67
2023/09/28 11:55:22;;;;;;;8.80;3.20;;;;;;;;;;5092847;28;20031;-66
2023/09/28 11:57:48;;;;;;;7.57;2.72;;;;;;;;;;5090774;28;20421;-66
2023/09/28 12:00:18;;;;;;;8.82;2.65;;;;;;;;;;5092048;28;20032;-66
2023/09/28 12:02:43;;;;;;;6.10;2.03;;;;;;;;;;5090558;28;20074;-67
2023/09/28 12:05:09;;;;;;;8.77;2.53;;;;;;;;;;5092960;28;20419;-67
2023/09/28 12:07:34;;;;;;;6.88;2.35;;;;;;;;;;5079615;28;20016;-66
2023/09/28 12:10:00;;;;;;;7.90;2.38;;;;;;;;;;5092948;28;20114;-66
2023/09/28 12:12:25;;;;;;;6.85;2.30;;;;;;;;;;5076703;28;20447;-67
2023/09/28 12:14:50;;;;;;;7.80;2.47;;;;;;;;;;5082607;28;20692;-67
2023/09/28 12:17:16;;;;;;;6.57;2.83;;;;;;;;;;5073073;28;20263;-67
2023/09/28 12:19:41;;;;;;;8.33;2.77;;;;;;;;;;5082594;28;20295;-67
2023/09/28 12:22:07;;;;;;;5.30;2.40;;;;;;;;;;5073896;28;20024;-67
2023/09/28 12:24:32;;;;;;;7.60;2.30;;;;;;;;;;5091098;28;20032;-67
2023/09/28 12:26:59;;;;;;;6.75;2.67;;;;;;;;;;5091424;28;20022;-66
2023/09/28 12:29:24;;;;;;;7.20;2.60;;;;;;;;;;5091710;28;20032;-67
2023/09/28 12:31:53;;;;;;;6.97;2.87;;;;;;;;;;5092671;28;20024;-67
2023/09/28 12:34:18;;;;;;;7.13;2.22;;;;;;;;;;5091968;28;20357;-66
2023/09/28 12:36:43;;;;;;;5.73;2.10;;;;;;;;;;5092439;28;20523;-67
2023/09/28 12:39:10;;;;;;;7.77;2.57;;;;;;;;;;5091401;28;20293;-66
2023/09/28 12:41:36;;;;;;;5.93;2.40;;;;;;;;;;5091478;28;20378;-67
2023/09/28 12:44:01;;;;;;;6.68;2.47;;;;;;;;;;5091708;28;20047;-67
2023/09/28 12:46:26;;;;;;;6.32;2.08;;;;;;;;;;5090857;28;20029;-67
2023/09/28 12:48:54;;;;;;;8.02;2.70;;;;;;;;;;5091609;28;20028;-67
2023/09/28 12:51:20;;;;;;;5.35;2.22;;;;;;;;;;5076544;28;20185;-67
2023/09/28 12:53:45;;;;;;;11.57;2.20;;;;;;;;;;5091594;28;20102;-67
2023/09/28 12:56:12;;;;;;;7.20;2.50;;;;;;;;;;5090756;28;20024;-66
2023/09/28 12:58:38;;;;;;;7.93;2.40;;;;;;;;;;5091422;28;20102;-67
2023/09/28 13:01:03;;;;;;;6.63;2.30;;;;;;;;;;5088280;28;20059;-66
2023/09/28 13:03:28;;;;;;;8.27;1.87;;;;;;;;;;5090218;28;20024;-67
2023/09/28 13:05:54;;;;;;;7.40;2.50;;;;;;;;;;5087388;28;20282;-66
2023/09/28 13:08:19;;;;;;;7.07;2.50;;;;;;;;;;5081680;28;20667;-66
2023/09/28 13:10:44;;;;;;;5.65;2.05;;;;;;;;;;5078706;28;20357;-66
2023/09/28 13:13:10;;;;;;;7.28;2.30;;;;;;;;;;5079323;28;20034;-66
2023/09/28 13:15:35;;;;;;;9.80;2.40;;;;;;;;;;5088889;28;20024;-66
2023/09/28 13:18:01;;;;;;;6.63;2.23;;;;;;;;;;5081117;28;20290;-66
2023/09/28 13:20:29;;;;;;;6.82;1.90;;;;;;;;;;5082628;28;20308;-66
2023/09/28 13:22:57;;;;;;;7.63;2.38;;;;;;;;;;5081099;28;20016;-66
2023/09/28 13:25:25;;;;;;;8.68;2.13;;;;;;;;;;5081364;28;20557;-66
2023/09/28 13:27:51;;;;;;;6.40;2.22;;;;;;;;;;5088353;28;20543;-66
2023/09/28 13:30:19;;;;;;;8.40;2.67;;;;;;;;;;5072707;28;20028;-65
2023/09/28 13:32:44;;;;;;;7.60;2.30;;;;;;;;;;5077733;28;20421;-66
2023/09/28 13:35:11;;;;;;;5.72;2.63;;;;;;;;;;5078317;28;20069;-66
2023/09/28 13:37:36;;;;;;;7.30;2.10;;;;;;;;;;5080002;28;20029;-66
2023/09/28 13:40:03;;;;;;;7.85;2.05;;;;;;;;;;5075464;28;20044;-66
2023/09/28 13:42:28;;;;;;;4.35;2.10;;;;;;;;;;5072503;28;20039;-67
2023/09/28 13:44:53;;;;;;;7.47;2.10;;;;;;;;;;5087773;28;20028;-67
2023/09/28 13:47:19;;;;;;;6.53;2.40;;;;;;;;;;5080513;28;20357;-67
2023/09/28 13:49:44;;;;;;;4.03;1.60;;;;;;;;;;5084926;28;20070;-67
2023/09/28 13:52:10;;;;;;;6.60;2.40;;;;;;;;;;5083715;28;20065;-66
2023/09/28 13:54:36;;;;;;;4.75;2.00;;;;;;;;;;5085463;28;20577;-67
2023/09/28 13:57:07;;;;;;;7.00;3.03;;;;;;;;;;5089116;28;20038;-67
2023/09/28 13:59:32;;;;;;;5.38;2.20;;;;;;;;;;5082532;28;20093;-66
2023/09/28 14:01:58;;;;;;;7.50;2.13;;;;;;;;;;5090752;28;20471;-66
2023/09/28 14:04:24;;;;;;;6.93;2.40;;;;;;;;;;5076489;28;20021;-66
2023/09/28 14:06:49;;;;;;;5.28;1.98;;;;;;;;;;5075353;28;20028;-66
2023/09/28 14:09:18;;;;;;;5.97;1.92;;;;;;;;;;5074283;28;20375;-67
2023/09/28 14:11:44;;;;;;;5.75;1.80;;;;;;;;;;5084722;28;20024;-67
2023/09/28 14:14:10;;;;;;;7.47;2.33;;;;;;;;;;5089314;28;20089;-66
2023/09/28 14:16:38;;;;;;;7.88;2.25;;;;;;;;;;5072828;28;20029;-68
2023/09/28 14:19:06;;;;;;;4.78;1.92;;;;;;;;;;5086563;28;20054;-66
2023/09/28 14:21:31;;;;;;;6.35;2.00;;;;;;;;;;5081610;28;20023;-66
2023/09/28 14:23:59;;;;;;;6.57;2.10;;;;;;;;;;5089458;28;20016;-66
2023/09/28 14:26:24;;;;;;;6.55;2.30;;;;;;;;;;5090981;28;20032;-65
2023/09/28 14:28:50;;;;;;;4.97;2.13;;;;;;;;;;5089768;28;20017;-66
2023/09/28 14:31:17;;;;;;;7.18;2.20;;;;;;;;;;5093608;28;20031;-66
2023/09/28 14:33:43;;;;;;;5.97;1.92;;;;;;;;;;5086185;28;20020;-66